createdAt,value
2019-06-20T00:00:16.409Z,21.47
2019-06-20T00:02:48.130Z,21.46
2019-06-20T00:05:19.912Z,21.45
2019-06-20T00:07:51.479Z,21.44
2019-06-20T00:10:23.257Z,21.38
2019-06-20T00:13:00.260Z,21.29
2019-06-20T00:15:27.494Z,21.24
2019-06-20T00:17:59.196Z,21.23
2019-06-20T00:20:30.831Z,21.17
2019-06-20T00:23:02.569Z,21.08
2019-06-20T00:25:34.123Z,21.05
2019-06-20T00:28:05.590Z,20.97
2019-06-20T00:30:37.266Z,20.97
2019-06-20T00:33:08.876Z,20.96
2019-06-20T00:35:40.511Z,21.01
2019-06-20T00:38:14.750Z,20.96
2019-06-20T00:40:46.314Z,20.97
2019-06-20T00:43:18.534Z,20.96
2019-06-20T00:45:50.377Z,20.88
2019-06-20T00:48:21.983Z,20.75
2019-06-20T00:50:53.526Z,20.73
2019-06-20T00:53:25.300Z,20.72
2019-06-20T00:55:56.874Z,20.69
2019-06-20T00:58:28.544Z,20.75
2019-06-20T01:01:00.231Z,20.73
2019-06-20T01:03:31.918Z,20.65
2019-06-20T01:06:03.265Z,20.61
2019-06-20T01:08:35.038Z,20.65
2019-06-20T01:11:06.714Z,20.58
2019-06-20T01:13:38.496Z,20.57
2019-06-20T01:16:10.164Z,20.53
2019-06-20T01:18:41.839Z,20.51
2019-06-20T01:21:13.521Z,20.49
2019-06-20T01:23:45.291Z,20.52
2019-06-20T01:26:16.931Z,20.52
2019-06-20T01:28:48.637Z,20.41
2019-06-20T01:31:20.315Z,20.43
2019-06-20T01:33:52.089Z,20.40
2019-06-20T01:36:23.762Z,20.37
2019-06-20T01:38:55.757Z,20.40
2019-06-20T01:41:27.414Z,20.43
2019-06-20T01:43:59.094Z,20.42
2019-06-20T01:46:30.971Z,20.31
2019-06-20T01:49:02.854Z,20.31
2019-06-20T01:51:34.635Z,20.37
2019-06-20T01:54:06.916Z,20.41
2019-06-20T01:56:38.656Z,20.34
2019-06-20T01:59:10.366Z,20.37
2019-06-20T02:01:42.208Z,20.40
2019-06-20T02:04:14.025Z,20.34
2019-06-20T02:06:45.902Z,20.36
2019-06-20T02:09:17.475Z,20.38
2019-06-20T02:11:49.151Z,20.39
2019-06-20T02:14:20.824Z,20.38
2019-06-20T02:16:53.007Z,20.43
2019-06-20T02:19:24.480Z,20.49
2019-06-20T02:21:56.185Z,20.54
2019-06-20T02:24:27.739Z,20.77
2019-06-20T02:26:59.200Z,21.44
2019-06-20T02:29:31.187Z,21.94
2019-06-20T02:32:02.954Z,22.23
2019-06-20T02:34:34.637Z,22.39
2019-06-20T02:37:06.611Z,22.64
2019-06-20T02:39:38.301Z,23.20
2019-06-20T02:42:10.062Z,23.78
2019-06-20T02:44:41.659Z,24.37
2019-06-20T02:47:13.410Z,24.65
2019-06-20T02:49:45.080Z,25.12
2019-06-20T02:52:16.758Z,25.25
2019-06-20T02:54:48.827Z,25.16
2019-06-20T02:57:20.825Z,25.43
2019-06-20T02:59:52.594Z,25.22
2019-06-20T03:02:24.269Z,25.71
2019-06-20T03:04:55.949Z,25.61
2019-06-20T03:07:27.517Z,25.44
2019-06-20T03:09:59.132Z,25.30
2019-06-20T03:12:30.868Z,24.84
2019-06-20T03:15:02.541Z,25.34
2019-06-20T03:17:34.320Z,24.69
2019-06-20T03:20:08.870Z,24.14
2019-06-20T03:22:40.311Z,24.46
2019-06-20T03:25:14.964Z,24.87
2019-06-20T03:27:46.131Z,25.53
2019-06-20T03:30:18.114Z,25.95
2019-06-20T03:32:49.583Z,26.22
2019-06-20T03:35:20.814Z,26.42
2019-06-20T03:37:52.383Z,26.49
2019-06-20T03:40:24.194Z,26.68
2019-06-20T03:42:55.459Z,27.05
2019-06-20T03:45:27.238Z,26.73
2019-06-20T03:47:58.909Z,27.05
2019-06-20T03:50:30.686Z,26.73
2019-06-20T03:53:02.363Z,25.74
2019-06-20T03:55:34.351Z,25.09
2019-06-20T03:58:05.899Z,25.04
2019-06-20T04:00:37.589Z,24.82
2019-06-20T04:03:09.124Z,24.82
2019-06-20T04:05:40.739Z,24.64
2019-06-20T04:08:12.411Z,24.87
2019-06-20T04:10:43.991Z,25.11
2019-06-20T04:13:15.655Z,25.21
2019-06-20T04:15:47.435Z,25.51
2019-06-20T04:18:19.011Z,25.74
2019-06-20T04:20:50.680Z,25.84
2019-06-20T04:23:22.352Z,25.82
2019-06-20T04:25:53.950Z,25.89
2019-06-20T04:28:25.596Z,26.07
2019-06-20T04:30:57.285Z,26.10
2019-06-20T04:33:28.947Z,26.36
2019-06-20T04:36:00.417Z,26.43
2019-06-20T04:38:32.060Z,26.63
2019-06-20T04:41:03.768Z,26.61
2019-06-20T04:43:35.440Z,26.26
2019-06-20T04:46:11.817Z,26.48
2019-06-20T04:48:43.497Z,26.77
2019-06-20T04:51:15.268Z,26.85
2019-06-20T04:53:46.812Z,27.10
2019-06-20T04:56:18.529Z,27.21
2019-06-20T04:58:50.189Z,27.30
2019-06-20T05:01:21.971Z,27.49
2019-06-20T05:03:53.659Z,27.52
2019-06-20T05:06:25.215Z,27.38
2019-06-20T05:08:56.886Z,27.54
2019-06-20T05:11:28.665Z,27.67
2019-06-20T05:14:00.950Z,27.65
2019-06-20T05:16:32.094Z,27.74
2019-06-20T05:19:03.657Z,27.96
2019-06-20T05:21:35.371Z,28.03
2019-06-20T05:24:06.999Z,27.87
2019-06-20T05:26:38.631Z,28.17
2019-06-20T05:29:10.437Z,28.26
2019-06-20T05:31:42.009Z,28.31
2019-06-20T05:34:13.536Z,28.34
2019-06-20T05:36:45.207Z,28.41
2019-06-20T05:39:16.884Z,28.20
2019-06-20T05:41:48.449Z,28.36
2019-06-20T05:44:19.995Z,28.28
2019-06-20T05:46:51.700Z,28.43
2019-06-20T05:49:23.241Z,28.46
2019-06-20T05:51:54.841Z,28.39
2019-06-20T05:54:26.515Z,28.45
2019-06-20T05:56:58.088Z,28.62
2019-06-20T05:59:29.862Z,28.69
2019-06-20T06:02:01.641Z,28.62
2019-06-20T06:04:33.315Z,28.58
2019-06-20T06:07:05.208Z,28.80
2019-06-20T06:09:36.754Z,28.83
2019-06-20T06:12:08.547Z,28.93
2019-06-20T06:14:40.127Z,28.75
2019-06-20T06:17:11.696Z,28.93
2019-06-20T06:19:42.832Z,29.25
2019-06-20T06:22:14.836Z,29.31
2019-06-20T06:24:46.476Z,29.17
2019-06-20T06:27:18.058Z,29.22
2019-06-20T06:29:49.652Z,29.16
2019-06-20T06:32:21.118Z,29.13
2019-06-20T06:34:52.805Z,29.20
2019-06-20T06:37:24.575Z,29.49
2019-06-20T06:39:56.145Z,29.62
2019-06-20T06:42:27.703Z,29.61
2019-06-20T06:44:59.390Z,29.92
2019-06-20T06:47:31.166Z,29.87
2019-06-20T06:50:02.991Z,30.03
2019-06-20T06:52:34.717Z,30.13
2019-06-20T06:55:07.212Z,30.30
2019-06-20T06:57:38.405Z,30.36
2019-06-20T07:00:11.584Z,30.20
2019-06-20T07:02:42.799Z,30.28
2019-06-20T07:05:15.346Z,30.33
2019-06-20T07:07:46.555Z,30.44
2019-06-20T07:10:18.440Z,30.24
2019-06-20T07:12:49.649Z,30.47
2019-06-20T07:15:21.626Z,30.29
2019-06-20T07:17:52.896Z,30.32
2019-06-20T07:20:24.636Z,30.41
2019-06-20T07:22:56.345Z,30.20
2019-06-20T07:25:27.919Z,30.40
2019-06-20T07:27:59.716Z,30.52
2019-06-20T07:30:31.266Z,30.71
2019-06-20T07:33:02.838Z,30.80
2019-06-20T07:35:34.516Z,30.60
2019-06-20T07:38:06.156Z,30.39
2019-06-20T07:40:37.762Z,30.92
2019-06-20T07:43:09.438Z,30.35
2019-06-20T07:45:40.891Z,30.59
2019-06-20T07:48:12.689Z,30.81
2019-06-20T07:50:44.152Z,30.17
2019-06-20T07:53:15.928Z,29.66
2019-06-20T07:55:47.330Z,29.98
2019-06-20T07:58:18.878Z,29.28
2019-06-20T08:00:50.643Z,29.47
2019-06-20T08:03:22.221Z,30.17
2019-06-20T08:05:53.792Z,30.90
2019-06-20T08:08:25.374Z,30.92
2019-06-20T08:10:56.943Z,30.03
2019-06-20T08:13:28.711Z,30.28
2019-06-20T08:16:03.522Z,30.03
2019-06-20T08:18:33.487Z,30.49
2019-06-20T08:21:05.173Z,30.87
2019-06-20T08:23:36.834Z,30.14
2019-06-20T08:26:08.474Z,29.87
2019-06-20T08:28:40.189Z,29.77
2019-06-20T08:31:11.659Z,30.51
2019-06-20T08:33:43.345Z,30.76
2019-06-20T08:36:14.967Z,31.01
2019-06-20T08:38:46.783Z,31.22
2019-06-20T08:41:18.355Z,31.27
2019-06-20T08:43:50.042Z,31.51
2019-06-20T08:46:21.703Z,31.58
2019-06-20T08:48:53.279Z,31.82
2019-06-20T08:51:24.845Z,32.06
2019-06-20T08:53:57.435Z,32.26
2019-06-20T08:56:29.224Z,32.35
2019-06-20T08:59:01.006Z,31.99
2019-06-20T09:01:32.420Z,31.76
2019-06-20T09:04:04.447Z,31.00
2019-06-20T09:06:36.094Z,31.37
2019-06-20T09:09:08.218Z,31.65
2019-06-20T09:11:39.778Z,31.84
2019-06-20T09:14:11.458Z,31.83
2019-06-20T09:16:43.131Z,31.03
2019-06-20T09:19:14.802Z,31.34
2019-06-20T09:21:46.442Z,31.46
2019-06-20T09:24:18.170Z,30.97
2019-06-20T09:26:51.352Z,31.06
2019-06-20T09:29:22.734Z,31.07
2019-06-20T09:31:55.441Z,31.25
2019-06-20T09:34:26.835Z,31.61
2019-06-20T09:36:59.419Z,31.82
2019-06-20T09:39:30.959Z,31.99
2019-06-20T09:42:03.441Z,32.07
2019-06-20T09:44:35.020Z,32.17
2019-06-20T09:47:06.699Z,32.01
2019-06-20T09:49:38.092Z,31.99
2019-06-20T09:52:09.636Z,31.69
2019-06-20T09:54:41.309Z,31.53
2019-06-20T09:57:12.780Z,31.85
2019-06-20T09:59:56.133Z,32.09
2019-06-20T10:02:17.762Z,32.24
2019-06-20T10:04:50.681Z,32.25
2019-06-20T10:07:22.339Z,32.26
2019-06-20T10:09:54.160Z,32.76
2019-06-20T10:12:25.857Z,32.79
2019-06-20T10:14:57.469Z,32.50
2019-06-20T10:17:29.108Z,32.50
2019-06-20T10:20:00.854Z,32.81
2019-06-20T10:22:32.285Z,32.86
2019-06-20T10:25:04.862Z,32.40
2019-06-20T10:27:36.453Z,32.80
2019-06-20T10:30:14.216Z,32.76
2019-06-20T10:32:42.111Z,32.51
2019-06-20T10:35:14.130Z,31.65
2019-06-20T10:37:46.824Z,31.39
2019-06-20T10:40:19.608Z,31.71
2019-06-20T10:42:52.767Z,32.19
2019-06-20T10:45:26.149Z,32.59
2019-06-20T10:47:57.408Z,32.87
2019-06-20T10:50:29.311Z,33.02
2019-06-20T10:53:00.569Z,32.69
2019-06-20T10:55:32.336Z,32.40
2019-06-20T10:58:03.776Z,32.41
2019-06-20T11:00:35.469Z,32.76
2019-06-20T11:03:08.595Z,32.73
2019-06-20T11:05:40.874Z,32.80
2019-06-20T11:08:13.057Z,32.66
2019-06-20T11:10:45.097Z,32.99
2019-06-20T11:13:16.713Z,32.50
2019-06-20T11:15:48.380Z,32.40
2019-06-20T11:18:19.931Z,32.62
2019-06-20T11:20:51.431Z,32.30
2019-06-20T11:23:22.897Z,31.93
2019-06-20T11:25:54.677Z,31.70
2019-06-20T11:28:26.263Z,31.28
2019-06-20T11:31:00.591Z,31.17
2019-06-20T11:33:31.021Z,31.07
2019-06-20T11:36:02.703Z,31.05
2019-06-20T11:38:34.380Z,31.00
2019-06-20T11:41:05.963Z,31.10
2019-06-20T11:43:38.362Z,31.42
2019-06-20T11:46:10.126Z,32.09
2019-06-20T11:48:43.024Z,32.54
2019-06-20T11:51:14.795Z,32.77
2019-06-20T11:53:46.066Z,32.81
2019-06-20T11:56:17.736Z,32.58
2019-06-20T11:58:49.412Z,32.18
2019-06-20T12:01:32.243Z,31.40
2019-06-20T12:03:54.294Z,31.00
2019-06-20T12:06:26.169Z,30.88
2019-06-20T12:08:57.644Z,31.00
2019-06-20T12:11:29.315Z,31.85
2019-06-20T12:14:00.910Z,32.12
2019-06-20T12:16:32.705Z,32.34
2019-06-20T12:19:04.256Z,32.49
2019-06-20T12:21:36.019Z,32.88
2019-06-20T12:24:08.685Z,33.28
2019-06-20T12:26:40.766Z,33.12
2019-06-20T12:29:12.981Z,32.71
2019-06-20T12:31:45.807Z,32.77
2019-06-20T12:34:17.260Z,32.65
2019-06-20T12:36:48.836Z,32.77
2019-06-20T12:39:20.397Z,33.00
2019-06-20T12:41:52.001Z,33.00
2019-06-20T12:44:23.544Z,33.11
2019-06-20T12:46:55.314Z,33.10
2019-06-20T12:49:26.989Z,32.83
2019-06-20T12:51:58.661Z,32.38
2019-06-20T12:54:30.413Z,31.86
2019-06-20T12:57:02.011Z,31.63
2019-06-20T12:59:33.587Z,31.68
2019-06-20T13:02:05.292Z,32.32
2019-06-20T13:04:38.224Z,32.09
2019-06-20T13:07:10.142Z,31.65
2019-06-20T13:09:42.328Z,32.12
2019-06-20T13:12:13.802Z,32.12
2019-06-20T13:14:45.701Z,31.54
2019-06-20T13:17:17.391Z,31.74
2019-06-20T13:19:49.025Z,31.98
2019-06-20T13:22:20.706Z,32.18
2019-06-20T13:24:52.339Z,32.56
2019-06-20T13:27:23.947Z,32.76
2019-06-20T13:29:55.623Z,33.07
2019-06-20T13:32:27.264Z,32.99
2019-06-20T13:34:58.836Z,32.68
2019-06-20T13:37:30.548Z,32.69
2019-06-20T13:40:02.018Z,32.06
2019-06-20T13:42:33.686Z,31.64
2019-06-20T13:45:08.545Z,31.51
2019-06-20T13:47:41.412Z,31.27
2019-06-20T13:50:13.114Z,31.16
2019-06-20T13:52:46.703Z,31.46
2019-06-20T13:55:18.008Z,31.13
2019-06-20T13:57:49.724Z,31.26
2019-06-20T14:00:25.528Z,32.05
2019-06-20T14:02:56.797Z,32.40
2019-06-20T14:05:28.373Z,32.63
2019-06-20T14:08:00.063Z,32.82
2019-06-20T14:10:32.638Z,33.18
2019-06-20T14:13:18.277Z,33.07
2019-06-20T14:15:37.319Z,32.67
2019-06-20T14:18:08.886Z,32.61
2019-06-20T14:20:40.563Z,32.39
2019-06-20T14:23:12.235Z,32.31
2019-06-20T14:25:43.787Z,32.36
2019-06-20T14:28:15.350Z,32.16
2019-06-20T14:30:48.272Z,32.03
2019-06-20T14:33:20.060Z,31.56
2019-06-20T14:35:51.733Z,32.01
2019-06-20T14:38:23.410Z,33.18
2019-06-20T14:40:54.979Z,34.51
2019-06-20T14:43:26.527Z,35.58
2019-06-20T14:45:58.131Z,35.59
2019-06-20T14:48:29.998Z,35.11
2019-06-20T14:51:01.237Z,34.72
2019-06-20T14:53:32.840Z,34.67
2019-06-20T14:56:04.417Z,34.50
2019-06-20T14:58:36.091Z,35.28
2019-06-20T15:01:07.773Z,36.14
2019-06-20T15:03:39.411Z,36.31
2019-06-20T15:06:11.121Z,35.46
2019-06-20T15:08:43.968Z,36.14
2019-06-20T15:11:15.791Z,36.87
2019-06-20T15:13:47.678Z,37.63
2019-06-20T15:16:20.637Z,36.87
2019-06-20T15:18:54.068Z,36.31
2019-06-20T15:21:25.451Z,36.27
2019-06-20T15:23:57.099Z,37.32
2019-06-20T15:26:28.766Z,36.67
2019-06-20T15:29:00.274Z,36.96
2019-06-20T15:31:31.911Z,36.49
2019-06-20T15:34:03.517Z,36.57
2019-06-20T15:36:35.095Z,35.95
2019-06-20T15:39:08.488Z,36.22
2019-06-20T15:41:40.076Z,35.23
2019-06-20T15:44:11.643Z,35.30
2019-06-20T15:46:43.288Z,35.21
2019-06-20T15:49:16.313Z,34.93
2019-06-20T15:51:47.768Z,35.11
2019-06-20T15:54:19.471Z,35.34
2019-06-20T15:56:51.020Z,34.83
2019-06-20T15:59:22.614Z,35.24
2019-06-20T16:01:54.053Z,35.12
2019-06-20T16:04:25.656Z,34.70
2019-06-20T16:06:57.179Z,35.52
2019-06-20T16:09:28.801Z,35.60
2019-06-20T16:12:00.605Z,34.84
2019-06-20T16:14:32.026Z,35.26
2019-06-20T16:17:03.622Z,35.81
2019-06-20T16:19:35.293Z,34.13
2019-06-20T16:22:06.867Z,33.38
2019-06-20T16:24:38.045Z,32.29
2019-06-20T16:27:09.706Z,31.71
2019-06-20T16:29:41.274Z,31.34
2019-06-20T16:32:12.847Z,30.92
2019-06-20T16:34:44.492Z,30.41
2019-06-20T16:37:16.061Z,30.37
2019-06-20T16:39:47.581Z,30.45
2019-06-20T16:42:19.234Z,30.21
2019-06-20T16:44:50.631Z,30.16
2019-06-20T16:47:22.177Z,30.31
2019-06-20T16:49:53.571Z,30.63
2019-06-20T16:52:25.220Z,30.34
2019-06-20T16:54:56.903Z,30.16
2019-06-20T16:57:28.466Z,30.28
2019-06-20T17:00:00.140Z,29.97
2019-06-20T17:02:31.781Z,29.73
2019-06-20T17:05:03.797Z,29.36
2019-06-20T17:07:35.089Z,29.10
2019-06-20T17:10:10.250Z,28.76
2019-06-20T17:12:41.438Z,28.40
2019-06-20T17:15:14.366Z,28.26
2019-06-20T17:17:45.751Z,28.15
2019-06-20T17:20:17.444Z,28.00
2019-06-20T17:22:49.253Z,27.90
2019-06-20T17:25:20.373Z,27.88
2019-06-20T17:27:52.037Z,27.84
2019-06-20T17:30:24.036Z,27.58
2019-06-20T17:32:55.283Z,27.49
2019-06-20T17:35:26.959Z,27.42
2019-06-20T17:37:58.147Z,27.31
2019-06-20T17:40:30.174Z,27.16
2019-06-20T17:43:01.468Z,27.02
2019-06-20T17:45:33.144Z,26.85
2019-06-20T17:48:04.816Z,26.81
2019-06-20T17:50:36.794Z,26.82
2019-06-20T17:53:08.477Z,26.76
2019-06-20T17:55:40.861Z,26.57
2019-06-20T17:58:12.333Z,26.44
2019-06-20T18:00:43.980Z,26.34
2019-06-20T18:03:15.602Z,26.18
2019-06-20T18:05:47.138Z,26.09
2019-06-20T18:08:18.726Z,25.90
2019-06-20T18:10:50.608Z,25.77
2019-06-20T18:13:22.248Z,25.63
2019-06-20T18:15:53.833Z,25.59
2019-06-20T18:18:25.403Z,25.56
2019-06-20T18:20:56.996Z,25.52
2019-06-20T18:23:28.568Z,25.40
2019-06-20T18:26:00.349Z,25.28
2019-06-20T18:28:32.122Z,25.17
2019-06-20T18:31:03.695Z,25.07
2019-06-20T18:33:35.383Z,24.94
2019-06-20T18:36:06.944Z,24.82
2019-06-20T18:38:38.600Z,24.86
2019-06-20T18:41:10.160Z,24.84
2019-06-20T18:43:41.753Z,24.90
2019-06-20T18:46:13.389Z,24.86
2019-06-20T18:48:45.109Z,24.81
2019-06-20T18:51:16.576Z,24.70
2019-06-20T18:53:50.601Z,24.61
2019-06-20T18:56:21.161Z,24.61
2019-06-20T18:58:52.702Z,24.58
2019-06-20T19:01:24.260Z,24.56
2019-06-20T19:03:55.837Z,24.43
2019-06-20T19:06:35.983Z,24.43
2019-06-20T19:09:00.444Z,24.47
2019-06-20T19:11:32.078Z,24.64
2019-06-20T19:14:04.865Z,24.64
2019-06-20T19:16:36.283Z,24.83
2019-06-20T19:19:07.955Z,24.87
2019-06-20T19:21:39.644Z,24.90
2019-06-20T19:24:11.205Z,24.85
2019-06-20T19:26:42.982Z,24.81
2019-06-20T19:29:15.257Z,24.69
2019-06-20T19:31:47.060Z,24.56
2019-06-20T19:34:18.824Z,24.54
2019-06-20T19:36:50.271Z,24.45
2019-06-20T19:39:21.964Z,24.45
2019-06-20T19:41:53.748Z,24.34
2019-06-20T19:44:25.332Z,24.34
2019-06-20T19:46:57.191Z,24.36
2019-06-20T19:49:28.765Z,24.41
2019-06-20T19:52:00.540Z,24.47
2019-06-20T19:54:32.118Z,24.47
2019-06-20T19:57:04.000Z,24.48
2019-06-20T19:59:35.340Z,24.48
2019-06-20T20:02:07.084Z,24.52
2019-06-20T20:04:38.711Z,24.50
2019-06-20T20:07:10.032Z,24.53
2019-06-20T20:09:41.651Z,24.50
2019-06-20T20:12:13.428Z,24.50
2019-06-20T20:14:46.137Z,24.48
2019-06-20T20:17:17.490Z,24.51
2019-06-20T20:19:49.069Z,24.59
2019-06-20T20:22:20.479Z,24.81
2019-06-20T20:24:52.116Z,24.81
2019-06-20T20:27:23.781Z,25.00
2019-06-20T20:29:55.388Z,25.04
2019-06-20T20:32:27.321Z,25.10
2019-06-20T20:34:59.147Z,25.14
2019-06-20T20:37:30.680Z,25.04
2019-06-20T20:40:02.262Z,25.04
2019-06-20T20:42:33.931Z,25.04
2019-06-20T20:45:07.653Z,25.03
2019-06-20T20:47:39.224Z,24.96
2019-06-20T20:50:11.560Z,24.93
2019-06-20T20:52:42.879Z,24.93
2019-06-20T20:55:16.668Z,24.93
2019-06-20T20:57:47.862Z,24.87
2019-06-20T21:00:25.256Z,24.86
2019-06-20T21:02:57.040Z,24.86
2019-06-20T21:05:28.582Z,24.84
2019-06-20T21:08:00.286Z,24.71
2019-06-20T21:10:31.961Z,24.71
2019-06-20T21:13:03.640Z,24.70
2019-06-20T21:15:35.124Z,24.61
2019-06-20T21:18:06.771Z,24.56
2019-06-20T21:20:38.453Z,24.56
2019-06-20T21:23:09.924Z,24.50
2019-06-20T21:25:41.475Z,24.50
2019-06-20T21:28:13.170Z,24.49
2019-06-20T21:30:44.711Z,24.49
2019-06-20T21:33:16.322Z,24.53
2019-06-20T21:35:47.988Z,24.53
2019-06-20T21:38:19.691Z,24.53
2019-06-20T21:40:51.234Z,24.50
2019-06-20T21:43:23.009Z,24.55
2019-06-20T21:45:54.479Z,24.41
2019-06-20T21:48:26.077Z,24.41
2019-06-20T21:50:57.737Z,24.42
2019-06-20T21:53:29.315Z,24.32
2019-06-20T21:56:00.978Z,24.32
2019-06-20T21:58:32.547Z,24.44
2019-06-20T22:01:04.802Z,24.44
2019-06-20T22:03:36.816Z,24.35
2019-06-20T22:06:20.230Z,24.33
2019-06-20T22:08:41.187Z,24.33
2019-06-20T22:11:12.390Z,24.40
2019-06-20T22:13:45.721Z,24.38
2019-06-20T22:16:18.153Z,24.38
2019-06-20T22:18:49.934Z,24.30
2019-06-20T22:21:21.589Z,24.30
2019-06-20T22:23:53.277Z,24.25
2019-06-20T22:26:24.841Z,24.23
2019-06-20T22:28:56.539Z,24.21
2019-06-20T22:31:28.100Z,24.28
2019-06-20T22:33:59.717Z,24.36
2019-06-20T22:36:40.310Z,24.42
2019-06-20T22:39:06.703Z,24.54
2019-06-20T22:41:38.334Z,24.54
2019-06-20T22:44:09.958Z,24.54
2019-06-20T22:46:41.522Z,24.37
2019-06-20T22:49:13.203Z,24.43
2019-06-20T22:51:44.762Z,24.54
2019-06-20T22:54:16.440Z,24.46
2019-06-20T22:56:48.111Z,24.51
2019-06-20T22:59:19.583Z,24.41
2019-06-20T23:01:51.256Z,24.24
2019-06-20T23:04:23.035Z,24.13
2019-06-20T23:06:56.718Z,23.94
2019-06-20T23:09:27.651Z,23.94
2019-06-20T23:11:59.179Z,23.85
2019-06-20T23:14:30.861Z,23.71
2019-06-20T23:17:03.460Z,23.62
2019-06-20T23:19:35.329Z,23.60
2019-06-20T23:22:06.902Z,23.50
2019-06-20T23:24:38.578Z,23.36
2019-06-20T23:27:13.835Z,23.30
2019-06-20T23:29:43.469Z,23.21
2019-06-20T23:32:15.031Z,23.01
2019-06-20T23:34:46.813Z,23.02
2019-06-20T23:37:18.512Z,23.22
2019-06-20T23:39:50.055Z,23.14
2019-06-20T23:42:21.591Z,23.08
2019-06-20T23:44:53.200Z,22.79
2019-06-20T23:47:24.771Z,22.63
2019-06-20T23:49:56.291Z,22.45
2019-06-20T23:52:35.287Z,22.33
2019-06-20T23:55:07.880Z,22.36
2019-06-20T23:57:39.548Z,22.45
